sensor_id;sensor_type;location;lat;lon;timestamp;pressure;altitude;pressure_sealevel;temperature;humidity
36354;BME280;22383;51.114;13.666;2024-01-15T00:00:35;67116.50;;;-0.68;100.00
36354;BME280;22383;51.114;13.666;2024-01-15T00:03:03;67120.78;;;-0.66;100.00
36354;BME280;22383;51.114;13.666;2024-01-15T00:05:30;67119.09;;;-0.68;100.00
36354;BME280;22383;51.114;13.666;2024-01-15T00:07:57;67119.66;;;-0.67;100.00
36354;BME280;22383;51.114;13.666;2024-01-15T00:10:24;67121.34;;;-0.66;100.00
36354;BME280;22383;51.114;13.666;2024-01-15T00:12:51;67116.50;;;-0.68;100.00
36354;BME280;22383;51.114;13.666;2024-01-15T00:15:19;67116.84;;;-0.70;100.00
36354;BME280;22383;51.114;13.666;2024-01-15T00:17:46;67117.78;;;-0.71;100.00
36354;BME280;22383;51.114;13.666;2024-01-15T00:20:13;67116.09;;;-0.73;100.00
36354;BME280;22383;51.114;13.666;2024-01-15T00:22:40;67115.84;;;-0.76;100.00
36354;BME280;22383;51.114;13.666;2024-01-15T00:25:08;67103.81;;;-0.77;100.00
36354;BME280;22383;51.114;13.666;2024-01-15T00:27:35;67103.94;;;-0.82;100.00
36354;BME280;22383;51.114;13.666;2024-01-15T00:30:02;67107.09;;;-0.81;100.00
36354;BME280;22383;51.114;13.666;2024-01-15T00:32:30;67104.50;;;-0.81;100.00
36354;BME280;22383;51.114;13.666;2024-01-15T00:34:57;67102.25;;;-0.83;100.00
36354;BME280;22383;51.114;13.666;2024-01-15T00:37:24;67101.13;;;-0.84;100.00
36354;BME280;22383;51.114;13.666;2024-01-15T00:39:51;67099.09;;;-0.84;100.00
36354;BME280;22383;51.114;13.666;2024-01-15T00:42:19;67104.84;;;-0.83;100.00
36354;BME280;22383;51.114;13.666;2024-01-15T00:44:46;67102.03;;;-0.86;100.00
36354;BME280;22383;51.114;13.666;2024-01-15T00:47:13;67098.31;;;-0.87;100.00
36354;BME280;22383;51.114;13.666;2024-01-15T00:49:40;67102.03;;;-0.86;100.00
36354;BME280;22383;51.114;13.666;2024-01-15T00:52:07;67102.97;;;-0.87;100.00
36354;BME280;22383;51.114;13.666;2024-01-15T00:54:35;67095.53;;;-0.89;100.00
36354;BME280;22383;51.114;13.666;2024-01-15T00:57:02;67093.06;;;-0.94;100.00
36354;BME280;22383;51.114;13.666;2024-01-15T00:59:30;67096.97;;;-0.90;100.00
36354;BME280;22383;51.114;13.666;2024-01-15T01:01:57;67091.25;;;-0.91;100.00
36354;BME280;22383;51.114;13.666;2024-01-15T01:04:24;67097.91;;;-0.92;100.00
36354;BME280;22383;51.114;13.666;2024-01-15T01:06:51;67094.16;;;-0.93;100.00
36354;BME280;22383;51.114;13.666;2024-01-15T01:09:19;67090.59;;;-0.99;100.00
36354;BME280;22383;51.114;13.666;2024-01-15T01:11:46;67090.25;;;-0.97;100.00
36354;BME280;22383;51.114;13.666;2024-01-15T01:14:13;67091.38;;;-0.96;100.00
36354;BME280;22383;51.114;13.666;2024-01-15T01:16:40;67091.38;;;-0.96;100.00
36354;BME280;22383;51.114;13.666;2024-01-15T01:19:07;67088.00;;;-0.99;100.00
36354;BME280;22383;51.114;13.666;2024-01-15T01:21:35;67085.41;;;-0.99;100.00
36354;BME280;22383;51.114;13.666;2024-01-15T01:24:02;67079.78;;;-1.04;100.00
36354;BME280;22383;51.114;13.666;2024-01-15T01:26:30;67080.69;;;-1.05;100.00
36354;BME280;22383;51.114;13.666;2024-01-15T01:28:57;67085.56;;;-1.03;100.00
36354;BME280;22383;51.114;13.666;2024-01-15T01:31:24;67079.03;;;-1.07;100.00
36354;BME280;22383;51.114;13.666;2024-01-15T01:33:51;67077.00;;;-1.06;100.00
36354;BME280;22383;51.114;13.666;2024-01-15T01:36:19;67081.81;;;-1.04;100.00
36354;BME280;22383;51.114;13.666;2024-01-15T01:38:46;67082.19;;;-1.06;100.00
36354;BME280;22383;51.114;13.666;2024-01-15T01:41:13;67074.16;;;-1.09;100.00
36354;BME280;22383;51.114;13.666;2024-01-15T01:43:40;67080.50;;;-1.08;100.00
36354;BME280;22383;51.114;13.666;2024-01-15T01:46:07;67074.75;;;-1.08;100.00
36354;BME280;22383;51.114;13.666;2024-01-15T01:48:35;67077.91;;;-1.08;100.00
36354;BME280;22383;51.114;13.666;2024-01-15T01:51:03;67073.97;;;-1.11;100.00
36354;BME280;22383;51.114;13.666;2024-01-15T01:53:32;67074.31;;;-1.13;100.00
36354;BME280;22383;51.114;13.666;2024-01-15T01:56:01;67068.00;;;-1.15;100.00
36354;BME280;22383;51.114;13.666;2024-01-15T01:58:30;67072.28;;;-1.13;100.00
36354;BME280;22383;51.114;13.666;2024-01-15T02:00:58;67067.44;;;-1.15;100.00
36354;BME280;22383;51.114;13.666;2024-01-15T02:03:27;67073.97;;;-1.11;100.00
36354;BME280;22383;51.114;13.666;2024-01-15T02:05:56;67071.94;;;-1.11;100.00
36354;BME280;22383;51.114;13.666;2024-01-15T02:08:23;67077.34;;;-1.08;100.00
36354;BME280;22383;51.114;13.666;2024-01-15T02:10:50;67070.66;;;-1.07;100.00
36354;BME280;22383;51.114;13.666;2024-01-15T02:13:18;67083.88;;;-1.05;100.00
36354;BME280;22383;51.114;13.666;2024-01-15T02:15:45;67081.63;;;-1.07;100.00
36354;BME280;22383;51.114;13.666;2024-01-15T02:18:13;67081.06;;;-1.07;100.00
36354;BME280;22383;51.114;13.666;2024-01-15T02:20:40;67080.13;;;-1.06;100.00
36354;BME280;22383;51.114;13.666;2024-01-15T02:23:08;67079.03;;;-1.07;100.00
36354;BME280;22383;51.114;13.666;2024-01-15T02:25:42;67078.44;;;-1.07;100.00
36354;BME280;22383;51.114;13.666;2024-01-15T02:28:16;67033.56;;;-1.10;100.00
36354;BME280;22383;51.114;13.666;2024-01-15T02:30:44;67074.31;;;-1.13;100.00
36354;BME280;22383;51.114;13.666;2024-01-15T02:33:12;67071.72;;;-1.13;100.00
36354;BME280;22383;51.114;13.666;2024-01-15T02:35:40;67070.94;;;-1.17;100.00
36354;BME280;22383;51.114;13.666;2024-01-15T02:38:08;67066.31;;;-1.16;100.00
36354;BME280;22383;51.114;13.666;2024-01-15T02:40:35;67066.66;;;-1.18;100.00
36354;BME280;22383;51.114;13.666;2024-01-15T02:43:03;67063.88;;;-1.21;100.00
36354;BME280;22383;51.114;13.666;2024-01-15T02:45:30;67059.22;;;-1.20;100.00
36354;BME280;22383;51.114;13.666;2024-01-15T02:47:57;67067.22;;;-1.18;100.00
36354;BME280;22383;51.114;13.666;2024-01-15T02:50:25;67063.50;;;-1.19;100.00
36354;BME280;22383;51.114;13.666;2024-01-15T02:52:52;67066.31;;;-1.16;100.00
36354;BME280;22383;51.114;13.666;2024-01-15T02:55:19;67065.75;;;-1.17;100.00
36354;BME280;22383;51.114;13.666;2024-01-15T02:57:46;67067.22;;;-1.18;100.00
36354;BME280;22383;51.114;13.666;2024-01-15T03:00:14;67062.97;;;-1.19;100.00
36354;BME280;22383;51.114;13.666;2024-01-15T03:02:44;67064.97;;;-1.20;100.00
36354;BME280;22383;51.114;13.666;2024-01-15T03:05:14;67067.78;;;-1.17;100.00
36354;BME280;22383;51.114;13.666;2024-01-15T03:07:42;67065.19;;;-1.17;100.00
36354;BME280;22383;51.114;13.666;2024-01-15T03:10:10;67060.91;;;-1.19;100.00
36354;BME280;22383;51.114;13.666;2024-01-15T03:12:37;67061.81;;;-1.20;100.00
36354;BME280;22383;51.114;13.666;2024-01-15T03:15:05;67069.81;;;-1.18;100.00
36354;BME280;22383;51.114;13.666;2024-01-15T03:17:32;67071.50;;;-1.16;100.00
36354;BME280;22383;51.114;13.666;2024-01-15T03:19:59;67067.78;;;-1.17;100.00
36354;BME280;22383;51.114;13.666;2024-01-15T03:22:27;67065.75;;;-1.17;100.00
36354;BME280;22383;51.114;13.666;2024-01-15T03:24:54;67069.25;;;-1.18;100.00
36354;BME280;22383;51.114;13.666;2024-01-15T03:27:21;67063.16;;;-1.17;100.00
36354;BME280;22383;51.114;13.666;2024-01-15T03:29:48;67072.09;;;-1.16;100.00
36354;BME280;22383;51.114;13.666;2024-01-15T03:32:16;67062.38;;;-1.20;100.00
36354;BME280;22383;51.114;13.666;2024-01-15T03:34:43;67061.28;;;-1.21;100.00
36354;BME280;22383;51.114;13.666;2024-01-15T03:37:10;67067.56;;;-1.20;100.00
36354;BME280;22383;51.114;13.666;2024-01-15T03:39:38;67063.88;;;-1.21;100.00
36354;BME280;22383;51.114;13.666;2024-01-15T03:42:09;67062.75;;;-1.22;100.00
36354;BME280;22383;51.114;13.666;2024-01-15T03:44:37;67057.91;;;-1.24;100.00
36354;BME280;22383;51.114;13.666;2024-01-15T03:47:04;67062.53;;;-1.24;100.00
36354;BME280;22383;51.114;13.666;2024-01-15T03:49:31;67057.13;;;-1.27;100.00
36354;BME280;22383;51.114;13.666;2024-01-15T03:51:58;67049.69;;;-1.29;100.00
36354;BME280;22383;51.114;13.666;2024-01-15T03:54:25;67052.63;;;-1.31;100.00
36354;BME280;22383;51.114;13.666;2024-01-15T03:56:53;67046.13;;;-1.35;100.00
36354;BME280;22383;51.114;13.666;2024-01-15T03:59:20;67039.94;;;-1.40;100.00
36354;BME280;22383;51.114;13.666;2024-01-15T04:01:49;67036.00;;;-1.44;100.00
36354;BME280;22383;51.114;13.666;2024-01-15T04:04:17;67040.63;;;-1.44;100.00
36354;BME280;22383;51.114;13.666;2024-01-15T04:06:45;67040.63;;;-1.44;100.00
36354;BME280;22383;51.114;13.666;2024-01-15T04:09:13;67032.66;;;-1.47;100.00
36354;BME280;22383;51.114;13.666;2024-01-15T04:11:40;67040.28;;;-1.42;100.00
36354;BME280;22383;51.114;13.666;2024-01-15T04:14:08;67028.38;;;-1.48;100.00
36354;BME280;22383;51.114;13.666;2024-01-15T04:16:37;67036.72;;;-1.48;100.00
36354;BME280;22383;51.114;13.666;2024-01-15T04:19:04;67030.97;;;-1.48;100.00
36354;BME280;22383;51.114;13.666;2024-01-15T04:21:32;67030.41;;;-1.49;100.00
36354;BME280;22383;51.114;13.666;2024-01-15T04:23:59;67030.19;;;-1.52;100.00
36354;BME280;22383;51.114;13.666;2024-01-15T04:26:26;67025.91;;;-1.53;100.00
36354;BME280;22383;51.114;13.666;2024-01-15T04:28:53;67025.34;;;-1.54;100.00
36354;BME280;22383;51.114;13.666;2024-01-15T04:31:24;67026.47;;;-1.53;100.00
36354;BME280;22383;51.114;13.666;2024-01-15T04:33:52;67027.94;;;-1.54;100.00
36354;BME280;22383;51.114;13.666;2024-01-15T04:36:19;67022.75;;;-1.54;100.00
36354;BME280;22383;51.114;13.666;2024-01-15T04:38:47;67021.97;;;-1.57;100.00
36354;BME280;22383;51.114;13.666;2024-01-15T04:41:15;67026.25;;;-1.55;100.00
36354;BME280;22383;51.114;13.666;2024-01-15T04:43:43;67024.78;;;-1.54;100.00
36354;BME280;22383;51.114;13.666;2024-01-15T04:46:10;67019.19;;;-1.59;100.00
36354;BME280;22383;51.114;13.666;2024-01-15T04:48:37;67020.44;;;-1.63;100.00
36354;BME280;22383;51.114;13.666;2024-01-15T04:51:05;67015.03;;;-1.65;100.00
36354;BME280;22383;51.114;13.666;2024-01-15T04:53:34;67014.69;;;-1.63;100.00
36354;BME280;22383;51.114;13.666;2024-01-15T04:56:02;67012.78;;;-1.67;100.00
36354;BME280;22383;51.114;13.666;2024-01-15T04:58:29;66998.97;;;-1.78;100.00
36354;BME280;22383;51.114;13.666;2024-01-15T05:00:56;66996.50;;;-1.82;100.00
36354;BME280;22383;51.114;13.666;2024-01-15T05:03:24;66987.53;;;-1.91;100.00
36354;BME280;22383;51.114;13.666;2024-01-15T05:05:51;66989.22;;;-1.89;100.00
36354;BME280;22383;51.114;13.666;2024-01-15T05:08:18;66980.81;;;-1.97;100.00
36354;BME280;22383;51.114;13.666;2024-01-15T05:10:46;66979.53;;;-1.93;100.00
36354;BME280;22383;51.114;13.666;2024-01-15T05:13:14;66993.91;;;-1.82;100.00
36354;BME280;22383;51.114;13.666;2024-01-15T05:15:41;66990.13;;;-1.91;100.00
36354;BME280;22383;51.114;13.666;2024-01-15T05:18:09;66994.25;;;-1.84;100.00
36354;BME280;22383;51.114;13.666;2024-01-15T05:20:36;67000.09;;;-1.77;100.00
36354;BME280;22383;51.114;13.666;2024-01-15T05:23:03;67004.03;;;-1.73;100.00
36354;BME280;22383;51.114;13.666;2024-01-15T05:25:30;67012.59;;;-1.70;100.00
36354;BME280;22383;51.114;13.666;2024-01-15T05:27:57;67008.50;;;-1.69;100.00
36354;BME280;22383;51.114;13.666;2024-01-15T05:30:25;67007.94;;;-1.69;100.00
36354;BME280;22383;51.114;13.666;2024-01-15T05:32:52;67008.31;;;-1.72;100.00
36354;BME280;22383;51.114;13.666;2024-01-15T05:35:19;67005.84;;;-1.76;100.00
36354;BME280;22383;51.114;13.666;2024-01-15T05:37:46;66990.00;;;-1.86;100.00
36354;BME280;22383;51.114;13.666;2024-01-15T05:40:13;66991.69;;;-1.84;100.00
36354;BME280;22383;51.114;13.666;2024-01-15T05:42:41;66992.81;;;-1.83;100.00
36354;BME280;22383;51.114;13.666;2024-01-15T05:45:09;67014.81;;;-1.68;100.00
36354;BME280;22383;51.114;13.666;2024-01-15T05:47:36;67010.75;;;-1.67;100.00
36354;BME280;22383;51.114;13.666;2024-01-15T05:50:03;67013.91;;;-1.66;100.00
36354;BME280;22383;51.114;13.666;2024-01-15T05:52:31;67016.38;;;-1.62;100.00
36354;BME280;22383;51.114;13.666;2024-01-15T05:54:59;67023.25;;;-1.60;100.00
36354;BME280;22383;51.114;13.666;2024-01-15T05:57:26;67026.06;;;-1.58;100.00
36354;BME280;22383;51.114;13.666;2024-01-15T05:59:53;67027.72;;;-1.56;100.00
36354;BME280;22383;51.114;13.666;2024-01-15T06:02:21;67020.09;;;-1.61;100.00
36354;BME280;22383;51.114;13.666;2024-01-15T06:04:48;67018.06;;;-1.60;100.00
36354;BME280;22383;51.114;13.666;2024-01-15T06:07:15;67024.91;;;-1.59;100.00
36354;BME280;22383;51.114;13.666;2024-01-15T06:09:42;67014.69;;;-1.63;100.00
36354;BME280;22383;51.114;13.666;2024-01-15T06:12:10;67018.97;;;-1.62;100.00
36354;BME280;22383;51.114;13.666;2024-01-15T06:14:37;67018.97;;;-1.62;100.00
36354;BME280;22383;51.114;13.666;2024-01-15T06:17:04;67018.97;;;-1.62;100.00
36354;BME280;22383;51.114;13.666;2024-01-15T06:19:31;67013.56;;;-1.64;100.00
36354;BME280;22383;51.114;13.666;2024-01-15T06:21:59;67017.28;;;-1.63;100.00
36354;BME280;22383;51.114;13.666;2024-01-15T06:24:26;67024.38;;;-1.59;100.00
36354;BME280;22383;51.114;13.666;2024-01-15T06:26:54;67021.19;;;-1.60;100.00
36354;BME280;22383;51.114;13.666;2024-01-15T06:29:21;67018.06;;;-1.60;100.00
36354;BME280;22383;51.114;13.666;2024-01-15T06:31:48;67021.41;;;-1.57;100.00
36354;BME280;22383;51.114;13.666;2024-01-15T06:34:15;67020.66;;;-1.60;100.00
36354;BME280;22383;51.114;13.666;2024-01-15T06:36:43;67019.53;;;-1.61;100.00
36354;BME280;22383;51.114;13.666;2024-01-15T06:39:10;67017.84;;;-1.63;100.00
36354;BME280;22383;51.114;13.666;2024-01-15T06:41:38;67016.16;;;-1.64;100.00
36354;BME280;22383;51.114;13.666;2024-01-15T06:44:11;67022.34;;;-1.59;100.00
36354;BME280;22383;51.114;13.666;2024-01-15T06:46:42;67013.22;;;-1.62;100.00
36354;BME280;22383;51.114;13.666;2024-01-15T06:49:10;67025.47;;;-1.58;100.00
36354;BME280;22383;51.114;13.666;2024-01-15T06:51:38;67028.50;;;-1.53;100.00
36354;BME280;22383;51.114;13.666;2024-01-15T06:54:05;67025.13;;;-1.56;100.00
36354;BME280;22383;51.114;13.666;2024-01-15T06:56:32;67025.13;;;-1.56;100.00
36354;BME280;22383;51.114;13.666;2024-01-15T06:58:59;67024.00;;;-1.57;100.00
36354;BME280;22383;51.114;13.666;2024-01-15T07:01:26;67024.56;;;-1.57;100.00
36354;BME280;22383;51.114;13.666;2024-01-15T07:03:54;67027.72;;;-1.56;100.00
36354;BME280;22383;51.114;13.666;2024-01-15T07:06:21;67025.13;;;-1.56;100.00
36354;BME280;22383;51.114;13.666;2024-01-15T07:08:49;67024.78;;;-1.54;100.00
36354;BME280;22383;51.114;13.666;2024-01-15T07:11:16;67025.69;;;-1.56;100.00
36354;BME280;22383;51.114;13.666;2024-01-15T07:13:43;67019.38;;;-1.57;100.00
36354;BME280;22383;51.114;13.666;2024-01-15T07:16:11;67018.06;;;-1.60;100.00
36354;BME280;22383;51.114;13.666;2024-01-15T07:18:38;67019.88;;;-1.63;100.00
36354;BME280;22383;51.114;13.666;2024-01-15T07:21:05;67019.88;;;-1.63;100.00
36354;BME280;22383;51.114;13.666;2024-01-15T07:23:32;67010.53;;;-1.69;100.00
36354;BME280;22383;51.114;13.666;2024-01-15T07:25:59;67007.19;;;-1.73;100.00
36354;BME280;22383;51.114;13.666;2024-01-15T07:28:29;67005.28;;;-1.77;100.00
36354;BME280;22383;51.114;13.666;2024-01-15T07:30:56;67000.09;;;-1.77;100.00
36354;BME280;22383;51.114;13.666;2024-01-15T07:33:24;67004.94;;;-1.75;100.00
36354;BME280;22383;51.114;13.666;2024-01-15T07:35:51;67004.16;;;-1.78;100.00
36354;BME280;22383;51.114;13.666;2024-01-15T07:38:18;67004.72;;;-1.77;100.00
36354;BME280;22383;51.114;13.666;2024-01-15T07:40:45;67002.69;;;-1.77;100.00
36354;BME280;22383;51.114;13.666;2024-01-15T07:43:16;67012.00;;;-1.71;100.00
36354;BME280;22383;51.114;13.666;2024-01-15T07:45:43;67007.94;;;-1.69;100.00
36354;BME280;22383;51.114;13.666;2024-01-15T07:48:12;67011.09;;;-1.69;100.00
36354;BME280;22383;51.114;13.666;2024-01-15T07:50:39;67014.25;;;-1.68;100.00
36354;BME280;22383;51.114;13.666;2024-01-15T07:53:07;67015.59;;;-1.65;100.00
36354;BME280;22383;51.114;13.666;2024-01-15T07:55:34;67014.47;;;-1.66;100.00
36354;BME280;22383;51.114;13.666;2024-01-15T07:58:01;67011.31;;;-1.66;100.00
36354;BME280;22383;51.114;13.666;2024-01-15T08:00:42;67011.09;;;-1.69;100.00
36354;BME280;22383;51.114;13.666;2024-01-15T08:03:11;67014.47;;;-1.66;100.00
36354;BME280;22383;51.114;13.666;2024-01-15T08:05:38;67013.56;;;-1.64;100.00
36354;BME280;22383;51.114;13.666;2024-01-15T08:08:05;67015.59;;;-1.65;100.00
36354;BME280;22383;51.114;13.666;2024-01-15T08:10:32;67014.13;;;-1.64;100.00
36354;BME280;22383;51.114;13.666;2024-01-15T08:12:59;67009.63;;;-1.68;100.00
36354;BME280;22383;51.114;13.666;2024-01-15T08:15:27;67007.19;;;-1.73;100.00
36354;BME280;22383;51.114;13.666;2024-01-15T08:17:57;67003.81;;;-1.76;100.00
36354;BME280;22383;51.114;13.666;2024-01-15T08:20:25;67002.13;;;-1.77;100.00
36354;BME280;22383;51.114;13.666;2024-01-15T08:22:53;67006.63;;;-1.73;100.00
36354;BME280;22383;51.114;13.666;2024-01-15T08:25:20;67023.78;;;-1.60;100.00
36354;BME280;22383;51.114;13.666;2024-01-15T08:27:47;67018.41;;;-1.62;100.00
36354;BME280;22383;51.114;13.666;2024-01-15T08:30:15;67020.44;;;-1.63;100.00
36354;BME280;22383;51.114;13.666;2024-01-15T08:32:42;67015.59;;;-1.65;100.00
36354;BME280;22383;51.114;13.666;2024-01-15T08:35:10;67013.34;;;-1.67;100.00
36354;BME280;22383;51.114;13.666;2024-01-15T08:37:38;67021.19;;;-1.60;100.00
36354;BME280;22383;51.114;13.666;2024-01-15T08:40:06;67023.25;;;-1.60;100.00
36354;BME280;22383;51.114;13.666;2024-01-15T08:42:35;67020.09;;;-1.61;100.00
36354;BME280;22383;51.114;13.666;2024-01-15T08:45:02;67017.28;;;-1.63;100.00
36354;BME280;22383;51.114;13.666;2024-01-15T08:47:29;67019.19;;;-1.59;100.00
36354;BME280;22383;51.114;13.666;2024-01-15T08:49:56;67025.34;;;-1.54;100.00
36354;BME280;22383;51.114;13.666;2024-01-15T08:52:24;67038.03;;;-1.44;100.00
36354;BME280;22383;51.114;13.666;2024-01-15T08:54:51;67041.41;;;-1.41;100.00
36354;BME280;22383;51.114;13.666;2024-01-15T08:57:18;67047.94;;;-1.38;100.00
36354;BME280;22383;51.114;13.666;2024-01-15T08:59:45;67041.41;;;-1.41;100.00
36354;BME280;22383;51.114;13.666;2024-01-15T09:02:12;67042.75;;;-1.38;100.00
36354;BME280;22383;51.114;13.666;2024-01-15T09:04:40;67044.78;;;-1.38;100.00
36354;BME280;22383;51.114;13.666;2024-01-15T09:07:08;67047.44;;;-1.31;100.00
36354;BME280;22383;51.114;13.666;2024-01-15T09:09:35;67063.50;;;-1.19;100.00
36354;BME280;22383;51.114;13.666;2024-01-15T09:12:02;67100.38;;;-0.87;100.00
36354;BME280;22383;51.114;13.666;2024-01-15T09:14:29;67128.66;;;-0.59;100.00
36354;BME280;22383;51.114;13.666;2024-01-15T09:17:06;67131.44;;;-0.57;100.00
36354;BME280;22383;51.114;13.666;2024-01-15T09:19:33;67132.94;;;-0.58;100.00
36354;BME280;22383;51.114;13.666;2024-01-15T09:22:01;67145.84;;;-0.46;100.00
36354;BME280;22383;51.114;13.666;2024-01-15T09:24:28;67135.19;;;-0.55;100.00
36354;BME280;22383;51.114;13.666;2024-01-15T09:26:55;67134.41;;;-0.59;100.00
36354;BME280;22383;51.114;13.666;2024-01-15T09:29:23;67146.78;;;-0.47;100.00
36354;BME280;22383;51.114;13.666;2024-01-15T09:31:51;67177.72;;;-0.12;100.00
36354;BME280;22383;51.114;13.666;2024-01-15T09:34:19;67191.72;;;-0.06;100.00
36354;BME280;22383;51.114;13.666;2024-01-15T09:36:46;67185.72;;;-0.09;100.00
36354;BME280;22383;51.114;13.666;2024-01-15T09:39:14;67149.44;;;-0.40;100.00
36354;BME280;22383;51.114;13.666;2024-01-15T09:41:43;67162.91;;;-0.28;100.00
36354;BME280;22383;51.114;13.666;2024-01-15T09:44:10;67170.41;;;-0.18;100.00
36354;BME280;22383;51.114;13.666;2024-01-15T09:46:38;67173.94;;;-0.20;100.00
36354;BME280;22383;51.114;13.666;2024-01-15T09:49:06;67162.13;;;-0.31;100.00
36354;BME280;22383;51.114;13.666;2024-01-15T09:51:35;67201.47;;;0.05;100.00
36354;BME280;22383;51.114;13.666;2024-01-15T09:54:03;67217.00;;;0.17;100.00
36354;BME280;22383;51.114;13.666;2024-01-15T09:56:31;67213.47;;;0.18;100.00
36354;BME280;22383;51.114;13.666;2024-01-15T09:58:59;67160.44;;;-0.32;100.00
36354;BME280;22383;51.114;13.666;2024-01-15T10:01:27;67128.09;;;-0.60;100.00
36354;BME280;22383;51.114;13.666;2024-01-15T10:03:55;67145.28;;;-0.46;100.00
36354;BME280;22383;51.114;13.666;2024-01-15T10:06:23;67229.78;;;0.33;100.00
36354;BME280;22383;51.114;13.666;2024-01-15T10:08:51;67274.56;;;0.72;100.00
36354;BME280;22383;51.114;13.666;2024-01-15T10:11:18;67246.09;;;0.48;100.00
36354;BME280;22383;51.114;13.666;2024-01-15T10:13:46;67197.53;;;0.02;100.00
36354;BME280;22383;51.114;13.666;2024-01-15T10:16:16;67197.53;;;0.02;100.00
36354;BME280;22383;51.114;13.666;2024-01-15T10:18:43;67248.13;;;0.48;100.00
36354;BME280;22383;51.114;13.666;2024-01-15T10:21:11;67230.69;;;0.32;100.00
36354;BME280;22383;51.114;13.666;2024-01-15T10:23:39;67226.78;;;0.28;100.00
36354;BME280;22383;51.114;13.666;2024-01-15T10:26:06;67205.63;;;0.11;100.00
36354;BME280;22383;51.114;13.666;2024-01-15T10:28:33;67179.75;;;-0.12;100.00
36354;BME280;22383;51.114;13.666;2024-01-15T10:31:02;67214.94;;;0.17;100.00
36354;BME280;22383;51.114;13.666;2024-01-15T10:33:29;67189.66;;;-0.06;100.00
36354;BME280;22383;51.114;13.666;2024-01-15T10:35:58;67158.97;;;-0.31;100.00
36354;BME280;22383;51.114;13.666;2024-01-15T10:38:26;67164.94;;;-0.28;100.00
36354;BME280;22383;51.114;13.666;2024-01-15T10:40:54;67179.75;;;-0.12;100.00
36354;BME280;22383;51.114;13.666;2024-01-15T10:43:22;67173.94;;;-0.20;100.00
36354;BME280;22383;51.114;13.666;2024-01-15T10:45:54;67192.69;;;-0.01;100.00
36354;BME280;22383;51.114;13.666;2024-01-15T10:48:21;67185.19;;;-0.10;100.00
36354;BME280;22383;51.114;13.666;2024-01-15T10:50:48;67204.47;;;0.10;100.00
36354;BME280;22383;51.114;13.666;2024-01-15T10:53:16;67197.75;;;0.04;100.00
36354;BME280;22383;51.114;13.666;2024-01-15T10:55:46;67186.50;;;-0.06;100.00
36354;BME280;22383;51.114;13.666;2024-01-15T10:58:15;67163.59;;;-0.32;100.00
36354;BME280;22383;51.114;13.666;2024-01-15T11:00:43;67169.44;;;-0.24;100.00
36354;BME280;22383;51.114;13.666;2024-01-15T11:03:10;67185.94;;;-0.07;100.00
36354;BME280;22383;51.114;13.666;2024-01-15T11:05:39;67219.81;;;0.20;100.00
36354;BME280;22383;51.114;13.666;2024-01-15T11:08:09;67235.00;;;0.33;100.00
36354;BME280;22383;51.114;13.666;2024-01-15T11:10:38;67242.28;;;0.40;100.00
36354;BME280;22383;51.114;13.666;2024-01-15T11:13:54;67201.13;;;0.07;100.00
36354;BME280;22383;51.114;13.666;2024-01-15T11:18:29;67158.06;;;-0.30;100.00
36354;BME280;22383;51.114;13.666;2024-01-15T11:23:51;67156.53;;;-0.36;100.00
36354;BME280;22383;51.114;13.666;2024-01-15T11:26:37;67155.75;;;-0.39;100.00
36354;BME280;22383;51.114;13.666;2024-01-15T11:31:59;67162.34;;;-0.28;100.00
36354;BME280;22383;51.114;13.666;2024-01-15T11:34:58;67177.09;;;-0.20;100.00
36354;BME280;22383;51.114;13.666;2024-01-15T11:37:56;67174.16;;;-0.17;100.00
36354;BME280;22383;51.114;13.666;2024-01-15T11:40:22;67205.56;;;0.04;100.00
36354;BME280;22383;51.114;13.666;2024-01-15T11:42:49;67230.28;;;0.27;100.00
36354;BME280;22383;51.114;13.666;2024-01-15T11:45:18;67246.09;;;0.48;100.00
36354;BME280;22383;51.114;13.666;2024-01-15T11:50:48;67243.06;;;0.43;100.00
36354;BME280;22383;51.114;13.666;2024-01-15T11:53:40;67250.56;;;0.52;100.00
36354;BME280;22383;51.114;13.666;2024-01-15T11:56:17;67238.78;;;0.42;100.00
36354;BME280;22383;51.114;13.666;2024-01-15T11:58:44;67225.84;;;0.30;100.00
36354;BME280;22383;51.114;13.666;2024-01-15T12:01:12;67222.63;;;0.22;100.00
36354;BME280;22383;51.114;13.666;2024-01-15T12:03:39;67215.31;;;0.15;100.00
36354;BME280;22383;51.114;13.666;2024-01-15T12:06:08;67196.25;;;0.05;100.00
36354;BME280;22383;51.114;13.666;2024-01-15T12:08:37;67186.09;;;-0.11;100.00
36354;BME280;22383;51.114;13.666;2024-01-15T12:11:11;67179.91;;;-0.17;100.00
36354;BME280;22383;51.114;13.666;2024-01-15T12:13:40;67173.03;;;-0.18;100.00
36354;BME280;22383;51.114;13.666;2024-01-15T12:16:07;67172.25;;;-0.22;100.00
36354;BME280;22383;51.114;13.666;2024-01-15T12:18:35;67162.34;;;-0.28;100.00
36354;BME280;22383;51.114;13.666;2024-01-15T12:21:03;67163.06;;;-0.32;100.00
36354;BME280;22383;51.114;13.666;2024-01-15T12:23:31;67171.13;;;-0.23;100.00
36354;BME280;22383;51.114;13.666;2024-01-15T12:25:58;67184.81;;;-0.08;100.00
36354;BME280;22383;51.114;13.666;2024-01-15T12:28:27;67179.34;;;-0.17;100.00
36354;BME280;22383;51.114;13.666;2024-01-15T12:30:55;67171.13;;;-0.23;100.00
36354;BME280;22383;51.114;13.666;2024-01-15T12:33:22;67168.53;;;-0.23;100.00
36354;BME280;22383;51.114;13.666;2024-01-15T12:35:52;67174.66;;;-0.24;100.00
36354;BME280;22383;51.114;13.666;2024-01-15T12:38:20;67162.69;;;-0.30;100.00
36354;BME280;22383;51.114;13.666;2024-01-15T12:40:48;67160.44;;;-0.32;100.00
36354;BME280;22383;51.114;13.666;2024-01-15T12:43:15;67163.59;;;-0.32;100.00
36354;BME280;22383;51.114;13.666;2024-01-15T12:45:42;67171.47;;;-0.25;100.00
36354;BME280;22383;51.114;13.666;2024-01-15T12:48:10;67166.44;;;-0.29;100.00
36354;BME280;22383;51.114;13.666;2024-01-15T12:50:37;67166.44;;;-0.29;100.00
36354;BME280;22383;51.114;13.666;2024-01-15T12:53:05;67158.75;;;-0.34;100.00
36354;BME280;22383;51.114;13.666;2024-01-15T12:55:32;67158.97;;;-0.31;100.00